Robertsport/Cape Mount Airport

Jump to: basic info | weather | comments

Related pages: nearby airports | nearby navaids | notams | map

Basic information (top)

Codes: GLCM
Location: lon 6.800000, lat -11.367000, elev 10 ft / 3 m msl
Status: small_airport

Weather (top)

Current conditions for Roberts International Airport 69nm (128km) ESE (rec'd 2014/07/30 07:15Z):

GLRB 300715Z 00000KT 2000 RA BKN004 OVC011 FEW022 CB 23/22 Q1015 RMK CB-SW/W

Airport forecast for Roberts International Airport 69nm (128km) ESE (rec'd 2014/07/31 06:51Z):

TAF TAF GLRB 310400Z 3106/0112 26010KT 4000 RA SCT004 BKN013 FEW023CB 
      TEMPO 3107/3111 18008KT 9000 BKN015 FEW025CB 
      BECMG 3112/3114 26013KT 7000 RA FEW005 BKN017 FEW027CB 
      TEMPO 3115/3119 24010KT 9999 BKN018

Latest comments (top)

No comments yet for Robertsport/Cape Mount Airport

More... (top)

See also NOTAMs and nearby airports and navaids, or visit the Robertsport/Cape Mount Airport page at the main OurAirports website..